Flugplatz Gotha-Ost (EDEG)

Hier findest Du alle Informationen zum Flugplatz Gotha-Ost (EDEG).

Informationen für Piloten zum Flugplatz Gotha-Ost

Hier findest Du alle relevanten Informationen, die Du als Pilot benötigst, um Gotha-Ost anzufliegen.

Flugplatz: Gotha-Ost ICAO-Code: EDEG
Frequenz Turm: 122,500 Mhz GAFOR Gebiet: 24
Frequenz Ground: 122,500 Mhz Mogas: nein
Platzrunde: N 1800 ft Landegebühr: -
Platzhöhe: - Sunrise: 03:05 Uhr UTC
Pisten: 08/26 - 470 m x , GRAS Sunset: 19:36 Uhr UTC

Mitglieder, die in Gotha-Ost fliegen

Flugwetter am Flugplatz Gotha-Ost

Die METAR Information stammen aus EDDE (16.13 km entfernt).

METAR Code:
2022/06/30 11:50
EDDE 301150Z AUTO 03005KT 330V110 CAVOK 26/17 Q1012

Temperatur: 14,9 °C Niederschlag: - Wind: 4,0 kt
Temperatur (min.): 12,3 °C Luftdruck: 1022 hPa Windrichtung: 190 °
Temperatur (max.): 16,1 °C Luftfeuchtigkeit: 84 % Bewölkung: -

Flugschulen am Flugplatz Gotha-Ost

Am Flugplatz Gotha-Ost gibt es eine Flugschule.

Benachbarte Flugplätze und Flugschulen

Es gibt 14 weitere Flugplätze in einem Umkreis von 50 km um den Flugplatz Gotha-Ost.

Jetzt anmelden

Passwort vergessen

Umfrage Archiv

Sendet Ihr ADS-B und/oder FLARM?

Ja
83.1 %
Nein
16.9 %
Stimmen: 177 | Diskussion
Anzeige: Roland Aircraft
Statistik Alle Mitglieder

Aktuell sind 46 Besucher online, davon 2 Mitglieder und 44 Gäste.


Mitglieder online:
Maik  Maraio 

Anzeige: ULPower Aero Engines Anzeige: Pocket FMS